Terminal Aerodrome Forecast
Issued by NWS

Home | Current Version | Previous Version | Text Only | Print | Product List | Glossary On
Versions: 1 2 3 4 5 6 7 8 9 10 11 12 13 14 15 16 17 18 19 20 21 22 23 24 25 26 27
780
FTUS43 KDLH 182253 AAB
TAFBRD
TAF AMD
KBRD 182253Z 1823/1918 03011KT P6SM VCSH SCT025 OVC100
      TEMPO 1823/1901 3SM -SN BR BKN025
     FM190200 36010G17KT P6SM BKN100
     FM191500 02012G19KT P6SM -SN OVC070=

USA.gov is the U.S. government's official web portal to all federal, state and local government web resources and services.